sensor_id;sensor_type;location;lat;lon;timestamp;P1;durP1;ratioP1;P2;durP2;ratioP2
4758;SDS011;2393;50.560;12.636;2023-08-07T00:00:08;1.23;;;0.60;;
4758;SDS011;2393;50.560;12.636;2023-08-07T00:02:36;0.70;;;0.70;;
4758;SDS011;2393;50.560;12.636;2023-08-07T00:05:05;0.60;;;0.60;;
4758;SDS011;2393;50.560;12.636;2023-08-07T00:07:35;3.60;;;0.80;;
4758;SDS011;2393;50.560;12.636;2023-08-07T00:10:03;0.60;;;0.60;;
4758;SDS011;2393;50.560;12.636;2023-08-07T00:12:32;0.40;;;0.40;;
4758;SDS011;2393;50.560;12.636;2023-08-07T00:15:00;0.40;;;0.33;;
4758;SDS011;2393;50.560;12.636;2023-08-07T00:17:29;0.40;;;0.40;;
4758;SDS011;2393;50.560;12.636;2023-08-07T00:19:57;0.50;;;0.50;;
4758;SDS011;2393;50.560;12.636;2023-08-07T00:22:25;0.43;;;0.43;;
4758;SDS011;2393;50.560;12.636;2023-08-07T00:24:55;0.57;;;0.57;;
4758;SDS011;2393;50.560;12.636;2023-08-07T00:27:23;0.77;;;0.37;;
4758;SDS011;2393;50.560;12.636;2023-08-07T00:29:51;1.03;;;0.40;;
4758;SDS011;2393;50.560;12.636;2023-08-07T00:32:19;10.60;;;0.50;;
4758;SDS011;2393;50.560;12.636;2023-08-07T00:34:47;1.33;;;0.30;;
4758;SDS011;2393;50.560;12.636;2023-08-07T00:37:16;0.40;;;0.30;;
4758;SDS011;2393;50.560;12.636;2023-08-07T00:39:44;0.50;;;0.40;;
4758;SDS011;2393;50.560;12.636;2023-08-07T00:42:13;0.47;;;0.47;;
4758;SDS011;2393;50.560;12.636;2023-08-07T00:44:42;0.60;;;0.30;;
4758;SDS011;2393;50.560;12.636;2023-08-07T00:47:10;0.43;;;0.40;;
4758;SDS011;2393;50.560;12.636;2023-08-07T00:49:39;1.17;;;0.43;;
4758;SDS011;2393;50.560;12.636;2023-08-07T00:52:08;0.60;;;0.40;;
4758;SDS011;2393;50.560;12.636;2023-08-07T00:54:37;0.97;;;0.60;;
4758;SDS011;2393;50.560;12.636;2023-08-07T00:57:07;0.47;;;0.47;;
4758;SDS011;2393;50.560;12.636;2023-08-07T00:59:39;0.37;;;0.30;;
4758;SDS011;2393;50.560;12.636;2023-08-07T01:02:08;0.30;;;0.30;;
4758;SDS011;2393;50.560;12.636;2023-08-07T01:04:36;0.47;;;0.47;;
4758;SDS011;2393;50.560;12.636;2023-08-07T01:07:05;0.60;;;0.60;;
4758;SDS011;2393;50.560;12.636;2023-08-07T01:09:33;0.40;;;0.40;;
4758;SDS011;2393;50.560;12.636;2023-08-07T01:12:04;0.50;;;0.50;;
4758;SDS011;2393;50.560;12.636;2023-08-07T01:14:42;1.90;;;0.60;;
4758;SDS011;2393;50.560;12.636;2023-08-07T01:17:17;0.40;;;0.40;;
4758;SDS011;2393;50.560;12.636;2023-08-07T01:19:47;1.40;;;1.03;;
4758;SDS011;2393;50.560;12.636;2023-08-07T01:22:19;0.57;;;0.57;;
4758;SDS011;2393;50.560;12.636;2023-08-07T01:24:48;0.83;;;0.50;;
4758;SDS011;2393;50.560;12.636;2023-08-07T01:27:21;0.43;;;0.43;;
4758;SDS011;2393;50.560;12.636;2023-08-07T01:29:59;0.70;;;0.47;;
4758;SDS011;2393;50.560;12.636;2023-08-07T01:32:34;0.40;;;0.40;;
4758;SDS011;2393;50.560;12.636;2023-08-07T01:35:07;0.87;;;0.87;;
4758;SDS011;2393;50.560;12.636;2023-08-07T01:37:41;0.60;;;0.60;;
4758;SDS011;2393;50.560;12.636;2023-08-07T01:40:10;0.47;;;0.47;;
4758;SDS011;2393;50.560;12.636;2023-08-07T01:42:40;0.90;;;0.90;;
4758;SDS011;2393;50.560;12.636;2023-08-07T01:45:09;0.50;;;0.50;;
4758;SDS011;2393;50.560;12.636;2023-08-07T01:47:38;0.60;;;0.43;;
4758;SDS011;2393;50.560;12.636;2023-08-07T01:50:06;1.03;;;0.60;;
4758;SDS011;2393;50.560;12.636;2023-08-07T01:52:34;0.93;;;0.93;;
4758;SDS011;2393;50.560;12.636;2023-08-07T01:55:04;0.80;;;0.40;;
4758;SDS011;2393;50.560;12.636;2023-08-07T01:57:33;0.53;;;0.53;;
4758;SDS011;2393;50.560;12.636;2023-08-07T02:00:01;0.50;;;0.37;;
4758;SDS011;2393;50.560;12.636;2023-08-07T02:02:40;0.70;;;0.70;;
4758;SDS011;2393;50.560;12.636;2023-08-07T02:05:08;0.47;;;0.47;;
4758;SDS011;2393;50.560;12.636;2023-08-07T02:07:36;0.80;;;0.80;;
4758;SDS011;2393;50.560;12.636;2023-08-07T02:10:06;0.57;;;0.57;;
4758;SDS011;2393;50.560;12.636;2023-08-07T02:12:35;0.47;;;0.47;;
4758;SDS011;2393;50.560;12.636;2023-08-07T02:15:04;0.77;;;0.77;;
4758;SDS011;2393;50.560;12.636;2023-08-07T02:17:33;0.60;;;0.60;;
4758;SDS011;2393;50.560;12.636;2023-08-07T02:20:05;0.80;;;0.80;;
4758;SDS011;2393;50.560;12.636;2023-08-07T02:22:34;0.90;;;0.90;;
4758;SDS011;2393;50.560;12.636;2023-08-07T02:25:02;0.63;;;0.63;;
4758;SDS011;2393;50.560;12.636;2023-08-07T02:27:31;0.80;;;0.80;;
4758;SDS011;2393;50.560;12.636;2023-08-07T02:29:59;0.70;;;0.70;;
4758;SDS011;2393;50.560;12.636;2023-08-07T02:32:29;0.73;;;0.73;;
4758;SDS011;2393;50.560;12.636;2023-08-07T02:34:57;1.67;;;0.73;;
4758;SDS011;2393;50.560;12.636;2023-08-07T02:37:25;0.60;;;0.60;;
4758;SDS011;2393;50.560;12.636;2023-08-07T02:39:53;4.17;;;0.70;;
4758;SDS011;2393;50.560;12.636;2023-08-07T02:42:21;0.80;;;0.47;;
4758;SDS011;2393;50.560;12.636;2023-08-07T02:44:51;0.60;;;0.43;;
4758;SDS011;2393;50.560;12.636;2023-08-07T02:47:19;0.60;;;0.47;;
4758;SDS011;2393;50.560;12.636;2023-08-07T02:49:47;0.57;;;0.57;;
4758;SDS011;2393;50.560;12.636;2023-08-07T02:52:15;0.50;;;0.50;;
4758;SDS011;2393;50.560;12.636;2023-08-07T02:54:43;0.80;;;0.80;;
4758;SDS011;2393;50.560;12.636;2023-08-07T02:57:12;0.70;;;0.70;;
4758;SDS011;2393;50.560;12.636;2023-08-07T02:59:40;1.30;;;1.07;;
4758;SDS011;2393;50.560;12.636;2023-08-07T03:02:09;1.10;;;1.10;;
4758;SDS011;2393;50.560;12.636;2023-08-07T03:04:37;1.30;;;1.20;;
4758;SDS011;2393;50.560;12.636;2023-08-07T03:07:05;1.00;;;1.00;;
4758;SDS011;2393;50.560;12.636;2023-08-07T03:09:33;1.30;;;1.13;;
4758;SDS011;2393;50.560;12.636;2023-08-07T03:12:02;1.80;;;1.70;;
4758;SDS011;2393;50.560;12.636;2023-08-07T03:14:31;1.03;;;1.03;;
4758;SDS011;2393;50.560;12.636;2023-08-07T03:16:59;2.27;;;1.73;;
4758;SDS011;2393;50.560;12.636;2023-08-07T03:19:28;1.60;;;1.50;;
4758;SDS011;2393;50.560;12.636;2023-08-07T03:21:56;1.10;;;1.10;;
4758;SDS011;2393;50.560;12.636;2023-08-07T03:24:25;1.10;;;1.10;;
4758;SDS011;2393;50.560;12.636;2023-08-07T03:26:53;0.40;;;0.40;;
4758;SDS011;2393;50.560;12.636;2023-08-07T03:29:21;0.70;;;0.70;;
4758;SDS011;2393;50.560;12.636;2023-08-07T03:31:49;1.50;;;1.40;;
4758;SDS011;2393;50.560;12.636;2023-08-07T03:34:18;2.10;;;1.63;;
4758;SDS011;2393;50.560;12.636;2023-08-07T03:36:48;1.80;;;1.70;;
4758;SDS011;2393;50.560;12.636;2023-08-07T03:39:16;1.40;;;1.30;;
4758;SDS011;2393;50.560;12.636;2023-08-07T03:41:44;1.83;;;1.70;;
4758;SDS011;2393;50.560;12.636;2023-08-07T03:44:12;2.13;;;2.00;;
4758;SDS011;2393;50.560;12.636;2023-08-07T03:46:41;2.20;;;1.90;;
4758;SDS011;2393;50.560;12.636;2023-08-07T03:49:09;4.23;;;2.00;;
4758;SDS011;2393;50.560;12.636;2023-08-07T03:51:37;1.80;;;1.70;;
4758;SDS011;2393;50.560;12.636;2023-08-07T03:54:06;5.80;;;2.53;;
4758;SDS011;2393;50.560;12.636;2023-08-07T03:56:34;2.73;;;2.53;;
4758;SDS011;2393;50.560;12.636;2023-08-07T03:59:05;2.30;;;1.93;;
4758;SDS011;2393;50.560;12.636;2023-08-07T04:01:34;3.33;;;2.60;;
4758;SDS011;2393;50.560;12.636;2023-08-07T04:04:02;2.17;;;2.07;;
4758;SDS011;2393;50.560;12.636;2023-08-07T04:06:31;4.90;;;1.97;;
4758;SDS011;2393;50.560;12.636;2023-08-07T04:08:59;1.40;;;1.40;;
4758;SDS011;2393;50.560;12.636;2023-08-07T04:11:29;1.67;;;1.57;;
4758;SDS011;2393;50.560;12.636;2023-08-07T04:13:57;2.97;;;1.53;;
4758;SDS011;2393;50.560;12.636;2023-08-07T04:16:25;5.30;;;1.60;;
4758;SDS011;2393;50.560;12.636;2023-08-07T04:18:53;3.83;;;1.60;;
4758;SDS011;2393;50.560;12.636;2023-08-07T04:21:21;1.23;;;1.00;;
4758;SDS011;2393;50.560;12.636;2023-08-07T04:23:49;1.13;;;1.03;;
4758;SDS011;2393;50.560;12.636;2023-08-07T04:26:17;0.97;;;0.93;;
4758;SDS011;2393;50.560;12.636;2023-08-07T04:28:47;1.23;;;0.90;;
4758;SDS011;2393;50.560;12.636;2023-08-07T04:31:15;7.50;;;1.03;;
4758;SDS011;2393;50.560;12.636;2023-08-07T04:33:43;1.93;;;1.00;;
4758;SDS011;2393;50.560;12.636;2023-08-07T04:36:11;1.83;;;1.33;;
4758;SDS011;2393;50.560;12.636;2023-08-07T04:38:39;3.40;;;1.60;;
4758;SDS011;2393;50.560;12.636;2023-08-07T04:41:08;1.67;;;1.57;;
4758;SDS011;2393;50.560;12.636;2023-08-07T04:43:36;2.10;;;1.17;;
4758;SDS011;2393;50.560;12.636;2023-08-07T04:46:06;1.40;;;1.40;;
4758;SDS011;2393;50.560;12.636;2023-08-07T04:48:34;2.73;;;1.93;;
4758;SDS011;2393;50.560;12.636;2023-08-07T04:51:02;1.60;;;1.50;;
4758;SDS011;2393;50.560;12.636;2023-08-07T04:53:30;3.80;;;2.00;;
4758;SDS011;2393;50.560;12.636;2023-08-07T04:55:59;1.40;;;1.30;;
4758;SDS011;2393;50.560;12.636;2023-08-07T04:58:27;1.23;;;1.00;;
4758;SDS011;2393;50.560;12.636;2023-08-07T05:00:55;1.93;;;1.10;;
4758;SDS011;2393;50.560;12.636;2023-08-07T05:03:25;2.20;;;0.90;;
4758;SDS011;2393;50.560;12.636;2023-08-07T05:05:57;0.70;;;0.70;;
4758;SDS011;2393;50.560;12.636;2023-08-07T05:08:26;1.10;;;1.00;;
4758;SDS011;2393;50.560;12.636;2023-08-07T05:10:54;2.67;;;1.60;;
4758;SDS011;2393;50.560;12.636;2023-08-07T05:13:23;0.83;;;0.80;;
4758;SDS011;2393;50.560;12.636;2023-08-07T05:15:51;1.33;;;1.23;;
4758;SDS011;2393;50.560;12.636;2023-08-07T05:18:19;3.00;;;1.40;;
4758;SDS011;2393;50.560;12.636;2023-08-07T05:20:48;1.20;;;1.20;;
4758;SDS011;2393;50.560;12.636;2023-08-07T05:23:16;1.47;;;1.37;;
4758;SDS011;2393;50.560;12.636;2023-08-07T05:25:45;7.17;;;1.50;;
4758;SDS011;2393;50.560;12.636;2023-08-07T05:28:15;4.63;;;1.47;;
4758;SDS011;2393;50.560;12.636;2023-08-07T05:30:43;6.03;;;1.40;;
4758;SDS011;2393;50.560;12.636;2023-08-07T05:33:11;1.80;;;1.70;;
4758;SDS011;2393;50.560;12.636;2023-08-07T05:35:41;2.10;;;1.67;;
4758;SDS011;2393;50.560;12.636;2023-08-07T05:38:11;1.27;;;1.27;;
4758;SDS011;2393;50.560;12.636;2023-08-07T05:40:39;1.47;;;1.43;;
4758;SDS011;2393;50.560;12.636;2023-08-07T05:43:07;2.27;;;1.67;;
4758;SDS011;2393;50.560;12.636;2023-08-07T05:45:36;2.40;;;1.20;;
4758;SDS011;2393;50.560;12.636;2023-08-07T05:48:04;1.17;;;1.17;;
4758;SDS011;2393;50.560;12.636;2023-08-07T05:50:35;3.17;;;1.30;;
4758;SDS011;2393;50.560;12.636;2023-08-07T05:53:03;1.20;;;1.20;;
4758;SDS011;2393;50.560;12.636;2023-08-07T05:55:33;1.03;;;1.03;;
4758;SDS011;2393;50.560;12.636;2023-08-07T05:58:01;0.93;;;0.93;;
4758;SDS011;2393;50.560;12.636;2023-08-07T06:00:29;1.90;;;1.00;;
4758;SDS011;2393;50.560;12.636;2023-08-07T06:02:58;1.10;;;0.97;;
4758;SDS011;2393;50.560;12.636;2023-08-07T06:05:26;0.80;;;0.80;;
4758;SDS011;2393;50.560;12.636;2023-08-07T06:07:54;0.80;;;0.80;;
4758;SDS011;2393;50.560;12.636;2023-08-07T06:10:23;0.77;;;0.77;;
4758;SDS011;2393;50.560;12.636;2023-08-07T06:12:52;0.90;;;0.90;;
4758;SDS011;2393;50.560;12.636;2023-08-07T06:15:21;2.53;;;0.60;;
4758;SDS011;2393;50.560;12.636;2023-08-07T06:17:49;0.60;;;0.60;;
4758;SDS011;2393;50.560;12.636;2023-08-07T06:20:18;1.87;;;1.07;;
4758;SDS011;2393;50.560;12.636;2023-08-07T06:22:47;0.70;;;0.70;;
4758;SDS011;2393;50.560;12.636;2023-08-07T06:25:15;0.50;;;0.50;;
4758;SDS011;2393;50.560;12.636;2023-08-07T06:27:43;0.60;;;0.60;;
4758;SDS011;2393;50.560;12.636;2023-08-07T06:30:12;0.80;;;0.80;;
4758;SDS011;2393;50.560;12.636;2023-08-07T06:32:41;0.63;;;0.50;;
4758;SDS011;2393;50.560;12.636;2023-08-07T06:35:09;0.53;;;0.53;;
4758;SDS011;2393;50.560;12.636;2023-08-07T06:37:37;0.73;;;0.73;;
4758;SDS011;2393;50.560;12.636;2023-08-07T06:40:06;0.90;;;0.90;;
4758;SDS011;2393;50.560;12.636;2023-08-07T06:42:35;1.77;;;0.83;;
4758;SDS011;2393;50.560;12.636;2023-08-07T06:45:03;1.20;;;0.80;;
4758;SDS011;2393;50.560;12.636;2023-08-07T06:47:34;5.17;;;0.77;;
4758;SDS011;2393;50.560;12.636;2023-08-07T06:50:02;0.60;;;0.60;;
4758;SDS011;2393;50.560;12.636;2023-08-07T06:52:30;3.33;;;0.90;;
4758;SDS011;2393;50.560;12.636;2023-08-07T06:54:58;0.77;;;0.77;;
4758;SDS011;2393;50.560;12.636;2023-08-07T06:57:27;2.17;;;0.90;;
4758;SDS011;2393;50.560;12.636;2023-08-07T06:59:55;6.33;;;0.77;;
4758;SDS011;2393;50.560;12.636;2023-08-07T07:02:23;2.00;;;0.70;;
4758;SDS011;2393;50.560;12.636;2023-08-07T07:04:52;0.70;;;0.70;;
4758;SDS011;2393;50.560;12.636;2023-08-07T07:07:21;1.50;;;0.77;;
4758;SDS011;2393;50.560;12.636;2023-08-07T07:09:49;1.93;;;0.83;;
4758;SDS011;2393;50.560;12.636;2023-08-07T07:12:17;1.10;;;0.97;;
4758;SDS011;2393;50.560;12.636;2023-08-07T07:14:45;0.70;;;0.70;;
4758;SDS011;2393;50.560;12.636;2023-08-07T07:17:13;0.60;;;0.60;;
4758;SDS011;2393;50.560;12.636;2023-08-07T07:19:42;1.33;;;0.77;;
4758;SDS011;2393;50.560;12.636;2023-08-07T07:22:11;0.90;;;0.90;;
4758;SDS011;2393;50.560;12.636;2023-08-07T07:24:39;0.73;;;0.70;;
4758;SDS011;2393;50.560;12.636;2023-08-07T07:27:07;0.40;;;0.30;;
4758;SDS011;2393;50.560;12.636;2023-08-07T07:29:35;0.97;;;0.90;;
4758;SDS011;2393;50.560;12.636;2023-08-07T07:32:05;0.70;;;0.70;;
4758;SDS011;2393;50.560;12.636;2023-08-07T07:34:35;0.90;;;0.90;;
4758;SDS011;2393;50.560;12.636;2023-08-07T07:37:04;1.10;;;0.70;;
4758;SDS011;2393;50.560;12.636;2023-08-07T07:39:34;9.87;;;0.73;;
4758;SDS011;2393;50.560;12.636;2023-08-07T07:42:02;0.87;;;0.70;;
4758;SDS011;2393;50.560;12.636;2023-08-07T07:44:31;0.90;;;0.90;;
4758;SDS011;2393;50.560;12.636;2023-08-07T07:47:00;2.20;;;0.80;;
4758;SDS011;2393;50.560;12.636;2023-08-07T07:49:28;1.13;;;1.10;;
4758;SDS011;2393;50.560;12.636;2023-08-07T07:51:56;0.60;;;0.60;;
4758;SDS011;2393;50.560;12.636;2023-08-07T07:54:24;3.30;;;0.93;;
4758;SDS011;2393;50.560;12.636;2023-08-07T07:56:53;2.10;;;0.73;;
4758;SDS011;2393;50.560;12.636;2023-08-07T07:59:21;1.07;;;0.60;;
4758;SDS011;2393;50.560;12.636;2023-08-07T08:01:49;0.70;;;0.60;;
4758;SDS011;2393;50.560;12.636;2023-08-07T08:04:18;0.60;;;0.60;;
4758;SDS011;2393;50.560;12.636;2023-08-07T08:06:46;0.70;;;0.70;;
4758;SDS011;2393;50.560;12.636;2023-08-07T08:09:15;6.00;;;0.73;;
4758;SDS011;2393;50.560;12.636;2023-08-07T08:11:43;0.80;;;0.80;;
4758;SDS011;2393;50.560;12.636;2023-08-07T08:14:13;0.50;;;0.50;;
4758;SDS011;2393;50.560;12.636;2023-08-07T08:16:41;0.67;;;0.67;;
4758;SDS011;2393;50.560;12.636;2023-08-07T08:19:09;1.10;;;0.80;;
4758;SDS011;2393;50.560;12.636;2023-08-07T08:21:37;3.13;;;0.50;;
4758;SDS011;2393;50.560;12.636;2023-08-07T08:24:08;0.87;;;0.50;;
4758;SDS011;2393;50.560;12.636;2023-08-07T08:26:36;0.70;;;0.43;;
4758;SDS011;2393;50.560;12.636;2023-08-07T08:29:05;0.60;;;0.60;;
4758;SDS011;2393;50.560;12.636;2023-08-07T08:31:35;0.57;;;0.57;;
4758;SDS011;2393;50.560;12.636;2023-08-07T08:34:03;1.10;;;0.43;;
4758;SDS011;2393;50.560;12.636;2023-08-07T08:36:31;9.00;;;2.90;;
4758;SDS011;2393;50.560;12.636;2023-08-07T08:38:59;2.40;;;0.60;;
4758;SDS011;2393;50.560;12.636;2023-08-07T08:41:30;0.90;;;0.50;;
4758;SDS011;2393;50.560;12.636;2023-08-07T08:43:59;0.40;;;0.40;;
4758;SDS011;2393;50.560;12.636;2023-08-07T08:46:28;0.67;;;0.40;;
4758;SDS011;2393;50.560;12.636;2023-08-07T08:48:59;0.60;;;0.60;;
4758;SDS011;2393;50.560;12.636;2023-08-07T08:51:29;0.40;;;0.33;;
4758;SDS011;2393;50.560;12.636;2023-08-07T08:53:59;0.60;;;0.60;;
4758;SDS011;2393;50.560;12.636;2023-08-07T08:56:28;0.67;;;0.67;;
4758;SDS011;2393;50.560;12.636;2023-08-07T08:58:58;0.53;;;0.53;;
4758;SDS011;2393;50.560;12.636;2023-08-07T09:01:26;0.50;;;0.40;;
4758;SDS011;2393;50.560;12.636;2023-08-07T09:03:55;0.43;;;0.43;;
4758;SDS011;2393;50.560;12.636;2023-08-07T09:06:25;0.40;;;0.40;;
4758;SDS011;2393;50.560;12.636;2023-08-07T09:08:55;0.50;;;0.50;;
4758;SDS011;2393;50.560;12.636;2023-08-07T09:11:25;0.50;;;0.50;;
4758;SDS011;2393;50.560;12.636;2023-08-07T09:13:55;0.40;;;0.40;;
4758;SDS011;2393;50.560;12.636;2023-08-07T09:16:24;0.40;;;0.40;;
4758;SDS011;2393;50.560;12.636;2023-08-07T09:18:55;0.50;;;0.40;;
4758;SDS011;2393;50.560;12.636;2023-08-07T09:21:24;0.40;;;0.30;;
4758;SDS011;2393;50.560;12.636;2023-08-07T09:23:53;0.70;;;0.60;;
4758;SDS011;2393;50.560;12.636;2023-08-07T09:26:22;0.77;;;0.50;;
4758;SDS011;2393;50.560;12.636;2023-08-07T09:28:51;0.80;;;0.50;;
4758;SDS011;2393;50.560;12.636;2023-08-07T09:31:20;2.20;;;0.30;;
4758;SDS011;2393;50.560;12.636;2023-08-07T09:33:49;0.50;;;0.50;;
4758;SDS011;2393;50.560;12.636;2023-08-07T09:36:17;1.30;;;0.63;;
4758;SDS011;2393;50.560;12.636;2023-08-07T09:38:50;0.30;;;0.30;;
4758;SDS011;2393;50.560;12.636;2023-08-07T09:41:18;0.30;;;0.20;;
4758;SDS011;2393;50.560;12.636;2023-08-07T09:43:47;0.50;;;0.33;;
4758;SDS011;2393;50.560;12.636;2023-08-07T09:46:15;0.43;;;0.37;;
4758;SDS011;2393;50.560;12.636;2023-08-07T09:48:46;0.30;;;0.30;;
4758;SDS011;2393;50.560;12.636;2023-08-07T09:51:14;0.40;;;0.33;;
4758;SDS011;2393;50.560;12.636;2023-08-07T09:53:43;0.40;;;0.40;;
4758;SDS011;2393;50.560;12.636;2023-08-07T09:56:12;0.83;;;0.83;;
4758;SDS011;2393;50.560;12.636;2023-08-07T09:58:43;0.40;;;0.40;;
4758;SDS011;2393;50.560;12.636;2023-08-07T10:01:15;1.23;;;0.43;;
4758;SDS011;2393;50.560;12.636;2023-08-07T10:03:45;0.60;;;0.60;;
4758;SDS011;2393;50.560;12.636;2023-08-07T10:06:14;0.30;;;0.20;;
4758;SDS011;2393;50.560;12.636;2023-08-07T10:08:43;0.50;;;0.40;;
4758;SDS011;2393;50.560;12.636;2023-08-07T10:11:13;0.50;;;0.50;;
4758;SDS011;2393;50.560;12.636;2023-08-07T10:13:42;0.30;;;0.20;;
4758;SDS011;2393;50.560;12.636;2023-08-07T10:16:11;0.40;;;0.40;;
4758;SDS011;2393;50.560;12.636;2023-08-07T10:18:41;0.40;;;0.30;;
4758;SDS011;2393;50.560;12.636;2023-08-07T10:21:09;0.50;;;0.50;;
4758;SDS011;2393;50.560;12.636;2023-08-07T10:23:38;0.40;;;0.30;;
4758;SDS011;2393;50.560;12.636;2023-08-07T10:26:08;0.73;;;0.40;;
4758;SDS011;2393;50.560;12.636;2023-08-07T10:28:40;0.40;;;0.20;;
4758;SDS011;2393;50.560;12.636;2023-08-07T10:31:09;0.40;;;0.40;;
4758;SDS011;2393;50.560;12.636;2023-08-07T10:33:40;2.00;;;0.30;;
4758;SDS011;2393;50.560;12.636;2023-08-07T10:36:09;0.30;;;0.30;;
4758;SDS011;2393;50.560;12.636;2023-08-07T10:38:38;3.07;;;0.30;;
4758;SDS011;2393;50.560;12.636;2023-08-07T10:41:08;0.30;;;0.30;;
4758;SDS011;2393;50.560;12.636;2023-08-07T10:43:37;0.30;;;0.30;;
4758;SDS011;2393;50.560;12.636;2023-08-07T10:46:08;0.30;;;0.20;;
4758;SDS011;2393;50.560;12.636;2023-08-07T10:48:38;0.40;;;0.30;;
4758;SDS011;2393;50.560;12.636;2023-08-07T10:51:14;0.30;;;0.20;;
4758;SDS011;2393;50.560;12.636;2023-08-07T10:53:48;0.40;;;0.30;;
4758;SDS011;2393;50.560;12.636;2023-08-07T10:56:18;0.30;;;0.30;;
4758;SDS011;2393;50.560;12.636;2023-08-07T10:59:06;0.30;;;0.20;;
4758;SDS011;2393;50.560;12.636;2023-08-07T11:01:39;0.30;;;0.23;;
4758;SDS011;2393;50.560;12.636;2023-08-07T11:04:09;0.30;;;0.30;;
4758;SDS011;2393;50.560;12.636;2023-08-07T11:06:39;0.30;;;0.20;;
4758;SDS011;2393;50.560;12.636;2023-08-07T11:09:08;0.30;;;0.30;;
4758;SDS011;2393;50.560;12.636;2023-08-07T11:11:38;0.30;;;0.30;;
4758;SDS011;2393;50.560;12.636;2023-08-07T11:14:10;0.40;;;0.20;;
4758;SDS011;2393;50.560;12.636;2023-08-07T11:16:39;0.30;;;0.30;;
4758;SDS011;2393;50.560;12.636;2023-08-07T11:19:08;0.30;;;0.30;;
4758;SDS011;2393;50.560;12.636;2023-08-07T11:21:37;1.50;;;0.40;;
4758;SDS011;2393;50.560;12.636;2023-08-07T11:24:05;0.30;;;0.20;;
4758;SDS011;2393;50.560;12.636;2023-08-07T11:26:33;0.40;;;0.30;;
4758;SDS011;2393;50.560;12.636;2023-08-07T11:29:02;0.70;;;0.40;;
4758;SDS011;2393;50.560;12.636;2023-08-07T11:31:31;0.40;;;0.30;;
4758;SDS011;2393;50.560;12.636;2023-08-07T11:34:00;0.40;;;0.30;;
4758;SDS011;2393;50.560;12.636;2023-08-07T11:36:29;0.30;;;0.20;;
4758;SDS011;2393;50.560;12.636;2023-08-07T11:38:58;0.40;;;0.30;;
4758;SDS011;2393;50.560;12.636;2023-08-07T11:41:26;0.40;;;0.40;;
4758;SDS011;2393;50.560;12.636;2023-08-07T11:43:54;0.30;;;0.30;;
4758;SDS011;2393;50.560;12.636;2023-08-07T11:46:23;0.40;;;0.20;;
4758;SDS011;2393;50.560;12.636;2023-08-07T11:48:53;1.13;;;0.30;;
4758;SDS011;2393;50.560;12.636;2023-08-07T11:51:23;0.50;;;0.27;;
4758;SDS011;2393;50.560;12.636;2023-08-07T11:53:51;0.40;;;0.30;;
4758;SDS011;2393;50.560;12.636;2023-08-07T11:56:23;0.40;;;0.40;;
4758;SDS011;2393;50.560;12.636;2023-08-07T11:58:51;0.30;;;0.30;;
4758;SDS011;2393;50.560;12.636;2023-08-07T12:01:20;1.83;;;0.40;;
4758;SDS011;2393;50.560;12.636;2023-08-07T12:03:51;0.87;;;0.40;;
4758;SDS011;2393;50.560;12.636;2023-08-07T12:06:22;0.57;;;0.37;;
4758;SDS011;2393;50.560;12.636;2023-08-07T12:08:56;0.30;;;0.20;;
4758;SDS011;2393;50.560;12.636;2023-08-07T12:11:24;1.03;;;0.30;;
4758;SDS011;2393;50.560;12.636;2023-08-07T12:13:53;0.30;;;0.20;;
4758;SDS011;2393;50.560;12.636;2023-08-07T12:16:21;0.40;;;0.30;;
4758;SDS011;2393;50.560;12.636;2023-08-07T12:18:50;0.30;;;0.20;;
4758;SDS011;2393;50.560;12.636;2023-08-07T12:21:21;0.40;;;0.20;;
4758;SDS011;2393;50.560;12.636;2023-08-07T12:23:51;0.30;;;0.20;;
4758;SDS011;2393;50.560;12.636;2023-08-07T12:26:24;0.40;;;0.23;;
4758;SDS011;2393;50.560;12.636;2023-08-07T12:28:52;0.30;;;0.20;;
4758;SDS011;2393;50.560;12.636;2023-08-07T12:31:20;0.30;;;0.20;;
4758;SDS011;2393;50.560;12.636;2023-08-07T12:33:48;0.30;;;0.20;;
4758;SDS011;2393;50.560;12.636;2023-08-07T12:36:18;0.40;;;0.20;;
4758;SDS011;2393;50.560;12.636;2023-08-07T12:38:47;0.30;;;0.20;;
4758;SDS011;2393;50.560;12.636;2023-08-07T12:41:16;0.40;;;0.20;;
4758;SDS011;2393;50.560;12.636;2023-08-07T12:43:47;0.30;;;0.20;;
4758;SDS011;2393;50.560;12.636;2023-08-07T12:46:15;0.40;;;0.30;;
4758;SDS011;2393;50.560;12.636;2023-08-07T12:48:46;0.30;;;0.30;;
4758;SDS011;2393;50.560;12.636;2023-08-07T12:51:14;0.40;;;0.33;;
4758;SDS011;2393;50.560;12.636;2023-08-07T12:53:42;0.97;;;0.30;;
4758;SDS011;2393;50.560;12.636;2023-08-07T12:56:13;0.30;;;0.23;;
4758;SDS011;2393;50.560;12.636;2023-08-07T12:58:41;0.30;;;0.20;;
4758;SDS011;2393;50.560;12.636;2023-08-07T13:01:09;0.50;;;0.27;;
4758;SDS011;2393;50.560;12.636;2023-08-07T13:03:37;0.30;;;0.20;;
4758;SDS011;2393;50.560;12.636;2023-08-07T13:06:06;0.30;;;0.20;;
4758;SDS011;2393;50.560;12.636;2023-08-07T13:08:35;0.60;;;0.30;;
4758;SDS011;2393;50.560;12.636;2023-08-07T13:11:03;0.40;;;0.27;;
4758;SDS011;2393;50.560;12.636;2023-08-07T13:13:33;0.70;;;0.40;;
4758;SDS011;2393;50.560;12.636;2023-08-07T13:16:01;0.30;;;0.20;;
4758;SDS011;2393;50.560;12.636;2023-08-07T13:18:30;0.30;;;0.20;;
4758;SDS011;2393;50.560;12.636;2023-08-07T13:20:58;0.50;;;0.20;;
4758;SDS011;2393;50.560;12.636;2023-08-07T13:23:26;0.40;;;0.30;;
4758;SDS011;2393;50.560;12.636;2023-08-07T13:25:54;0.80;;;0.40;;
4758;SDS011;2393;50.560;12.636;2023-08-07T13:28:22;0.60;;;0.40;;
4758;SDS011;2393;50.560;12.636;2023-08-07T13:30:52;1.93;;;0.30;;
4758;SDS011;2393;50.560;12.636;2023-08-07T13:33:23;0.63;;;0.30;;
4758;SDS011;2393;50.560;12.636;2023-08-07T13:35:51;0.47;;;0.30;;
4758;SDS011;2393;50.560;12.636;2023-08-07T13:38:19;0.40;;;0.30;;
4758;SDS011;2393;50.560;12.636;2023-08-07T13:40:47;0.60;;;0.30;;
4758;SDS011;2393;50.560;12.636;2023-08-07T13:43:17;0.30;;;0.30;;
4758;SDS011;2393;50.560;12.636;2023-08-07T13:45:45;0.30;;;0.20;;
4758;SDS011;2393;50.560;12.636;2023-08-07T13:48:15;0.80;;;0.30;;
4758;SDS011;2393;50.560;12.636;2023-08-07T13:50:43;0.40;;;0.30;;
4758;SDS011;2393;50.560;12.636;2023-08-07T13:53:11;0.40;;;0.30;;
4758;SDS011;2393;50.560;12.636;2023-08-07T13:55:41;0.40;;;0.40;;
4758;SDS011;2393;50.560;12.636;2023-08-07T13:58:11;0.37;;;0.20;;
4758;SDS011;2393;50.560;12.636;2023-08-07T14:00:41;2.33;;;0.30;;
4758;SDS011;2393;50.560;12.636;2023-08-07T14:03:10;0.40;;;0.40;;
4758;SDS011;2393;50.560;12.636;2023-08-07T14:05:41;0.30;;;0.30;;
4758;SDS011;2393;50.560;12.636;2023-08-07T14:08:09;0.50;;;0.50;;
4758;SDS011;2393;50.560;12.636;2023-08-07T14:10:37;0.83;;;0.30;;
4758;SDS011;2393;50.560;12.636;2023-08-07T14:13:08;0.40;;;0.30;;
4758;SDS011;2393;50.560;12.636;2023-08-07T14:15:38;0.30;;;0.30;;
4758;SDS011;2393;50.560;12.636;2023-08-07T14:18:06;0.40;;;0.30;;
4758;SDS011;2393;50.560;12.636;2023-08-07T14:20:34;0.40;;;0.40;;
4758;SDS011;2393;50.560;12.636;2023-08-07T14:23:23;0.30;;;0.20;;
4758;SDS011;2393;50.560;12.636;2023-08-07T14:25:51;0.40;;;0.40;;
4758;SDS011;2393;50.560;12.636;2023-08-07T14:28:19;0.53;;;0.40;;
4758;SDS011;2393;50.560;12.636;2023-08-07T14:30:47;0.40;;;0.30;;
4758;SDS011;2393;50.560;12.636;2023-08-07T14:33:16;0.97;;;0.70;;
4758;SDS011;2393;50.560;12.636;2023-08-07T14:35:44;0.50;;;0.50;;
4758;SDS011;2393;50.560;12.636;2023-08-07T14:38:12;0.60;;;0.60;;
4758;SDS011;2393;50.560;12.636;2023-08-07T14:40:42;0.50;;;0.50;;
4758;SDS011;2393;50.560;12.636;2023-08-07T14:43:10;0.83;;;0.83;;
4758;SDS011;2393;50.560;12.636;2023-08-07T14:45:39;1.00;;;0.50;;
4758;SDS011;2393;50.560;12.636;2023-08-07T14:48:08;0.67;;;0.67;;
4758;SDS011;2393;50.560;12.636;2023-08-07T14:50:36;0.70;;;0.70;;
4758;SDS011;2393;50.560;12.636;2023-08-07T14:53:04;0.70;;;0.70;;
4758;SDS011;2393;50.560;12.636;2023-08-07T14:55:32;0.67;;;0.67;;
4758;SDS011;2393;50.560;12.636;2023-08-07T14:58:02;0.47;;;0.47;;
4758;SDS011;2393;50.560;12.636;2023-08-07T15:00:30;0.53;;;0.50;;
4758;SDS011;2393;50.560;12.636;2023-08-07T15:02:58;2.10;;;0.60;;
4758;SDS011;2393;50.560;12.636;2023-08-07T15:05:26;0.60;;;0.60;;
4758;SDS011;2393;50.560;12.636;2023-08-07T15:07:54;0.67;;;0.67;;
4758;SDS011;2393;50.560;12.636;2023-08-07T15:10:23;0.53;;;0.53;;